sensor_id;sensor_type;location;lat;lon;timestamp;temperature;humidity
19680;DHT22;9989;48.962;9.182;2024-03-08T00:02:16;6.50;99.90
19680;DHT22;9989;48.962;9.182;2024-03-08T00:04:41;6.50;99.90
19680;DHT22;9989;48.962;9.182;2024-03-08T00:07:07;6.40;99.90
19680;DHT22;9989;48.962;9.182;2024-03-08T00:09:33;6.40;99.90
19680;DHT22;9989;48.962;9.182;2024-03-08T00:11:59;6.40;99.90
19680;DHT22;9989;48.962;9.182;2024-03-08T00:14:24;6.40;99.90
19680;DHT22;9989;48.962;9.182;2024-03-08T00:16:50;6.40;99.90
19680;DHT22;9989;48.962;9.182;2024-03-08T00:19:18;6.30;99.90
19680;DHT22;9989;48.962;9.182;2024-03-08T00:21:43;6.30;99.90
19680;DHT22;9989;48.962;9.182;2024-03-08T00:24:09;6.30;99.90
19680;DHT22;9989;48.962;9.182;2024-03-08T00:26:34;6.30;99.90
19680;DHT22;9989;48.962;9.182;2024-03-08T00:29:00;6.30;99.90
19680;DHT22;9989;48.962;9.182;2024-03-08T00:31:26;6.30;99.90
19680;DHT22;9989;48.962;9.182;2024-03-08T00:33:51;6.30;99.90
19680;DHT22;9989;48.962;9.182;2024-03-08T00:36:18;6.30;99.90
19680;DHT22;9989;48.962;9.182;2024-03-08T00:38:43;6.30;99.90
19680;DHT22;9989;48.962;9.182;2024-03-08T00:41:09;6.20;99.90
19680;DHT22;9989;48.962;9.182;2024-03-08T00:43:34;6.20;99.90
19680;DHT22;9989;48.962;9.182;2024-03-08T00:46:00;6.10;99.90
19680;DHT22;9989;48.962;9.182;2024-03-08T00:48:26;6.10;99.90
19680;DHT22;9989;48.962;9.182;2024-03-08T00:50:52;6.00;99.90
19680;DHT22;9989;48.962;9.182;2024-03-08T00:53:18;6.00;99.90
19680;DHT22;9989;48.962;9.182;2024-03-08T00:55:43;6.00;99.90
19680;DHT22;9989;48.962;9.182;2024-03-08T00:58:12;5.90;99.90
19680;DHT22;9989;48.962;9.182;2024-03-08T01:00:37;5.90;99.90
19680;DHT22;9989;48.962;9.182;2024-03-08T01:03:04;5.90;99.90
19680;DHT22;9989;48.962;9.182;2024-03-08T01:05:30;5.80;99.90
19680;DHT22;9989;48.962;9.182;2024-03-08T01:07:55;5.80;99.90
19680;DHT22;9989;48.962;9.182;2024-03-08T01:10:21;5.80;99.90
19680;DHT22;9989;48.962;9.182;2024-03-08T01:12:47;5.80;99.90
19680;DHT22;9989;48.962;9.182;2024-03-08T01:15:12;5.80;99.90
19680;DHT22;9989;48.962;9.182;2024-03-08T01:17:38;5.80;99.90
19680;DHT22;9989;48.962;9.182;2024-03-08T01:20:04;5.80;99.90
19680;DHT22;9989;48.962;9.182;2024-03-08T01:22:30;5.80;99.90
19680;DHT22;9989;48.962;9.182;2024-03-08T01:24:56;5.70;99.90
19680;DHT22;9989;48.962;9.182;2024-03-08T01:27:22;5.80;99.90
19680;DHT22;9989;48.962;9.182;2024-03-08T01:29:48;5.70;99.90
19680;DHT22;9989;48.962;9.182;2024-03-08T01:32:13;5.70;99.90
19680;DHT22;9989;48.962;9.182;2024-03-08T01:34:40;5.70;99.90
19680;DHT22;9989;48.962;9.182;2024-03-08T01:37:05;5.70;99.90
19680;DHT22;9989;48.962;9.182;2024-03-08T01:39:32;5.70;99.90
19680;DHT22;9989;48.962;9.182;2024-03-08T01:41:58;5.70;99.90
19680;DHT22;9989;48.962;9.182;2024-03-08T01:44:23;5.60;99.90
19680;DHT22;9989;48.962;9.182;2024-03-08T01:46:50;5.60;99.90
19680;DHT22;9989;48.962;9.182;2024-03-08T01:49:18;5.60;99.90
19680;DHT22;9989;48.962;9.182;2024-03-08T01:51:46;5.60;99.90
19680;DHT22;9989;48.962;9.182;2024-03-08T01:54:12;5.60;99.90
19680;DHT22;9989;48.962;9.182;2024-03-08T01:56:40;5.60;99.90
19680;DHT22;9989;48.962;9.182;2024-03-08T01:59:06;5.60;99.90
19680;DHT22;9989;48.962;9.182;2024-03-08T02:01:33;5.60;99.90
19680;DHT22;9989;48.962;9.182;2024-03-08T02:03:59;5.60;99.90
19680;DHT22;9989;48.962;9.182;2024-03-08T02:06:25;5.50;99.90
19680;DHT22;9989;48.962;9.182;2024-03-08T02:08:51;5.50;99.90
19680;DHT22;9989;48.962;9.182;2024-03-08T02:11:16;5.50;99.90
19680;DHT22;9989;48.962;9.182;2024-03-08T02:13:43;5.50;99.90
19680;DHT22;9989;48.962;9.182;2024-03-08T02:16:08;5.40;99.90
19680;DHT22;9989;48.962;9.182;2024-03-08T02:18:34;5.40;99.90
19680;DHT22;9989;48.962;9.182;2024-03-08T02:21:01;5.40;99.90
19680;DHT22;9989;48.962;9.182;2024-03-08T02:23:28;5.40;99.90
19680;DHT22;9989;48.962;9.182;2024-03-08T02:25:55;5.40;99.90
19680;DHT22;9989;48.962;9.182;2024-03-08T02:28:22;5.30;99.90
19680;DHT22;9989;48.962;9.182;2024-03-08T02:30:48;5.40;99.90
19680;DHT22;9989;48.962;9.182;2024-03-08T02:33:15;5.40;99.90
19680;DHT22;9989;48.962;9.182;2024-03-08T02:35:45;5.30;99.90
19680;DHT22;9989;48.962;9.182;2024-03-08T02:38:15;5.30;99.90
19680;DHT22;9989;48.962;9.182;2024-03-08T02:40:45;5.30;99.90
19680;DHT22;9989;48.962;9.182;2024-03-08T02:43:12;5.30;99.90
19680;DHT22;9989;48.962;9.182;2024-03-08T02:45:38;5.20;99.90
19680;DHT22;9989;48.962;9.182;2024-03-08T02:48:04;5.20;99.90
19680;DHT22;9989;48.962;9.182;2024-03-08T02:50:32;5.30;99.90
19680;DHT22;9989;48.962;9.182;2024-03-08T02:52:57;5.20;99.90
19680;DHT22;9989;48.962;9.182;2024-03-08T02:55:23;5.20;99.90
19680;DHT22;9989;48.962;9.182;2024-03-08T02:57:51;5.20;99.90
19680;DHT22;9989;48.962;9.182;2024-03-08T03:00:17;5.20;99.90
19680;DHT22;9989;48.962;9.182;2024-03-08T03:02:44;5.20;99.90
19680;DHT22;9989;48.962;9.182;2024-03-08T03:05:10;5.20;99.90
19680;DHT22;9989;48.962;9.182;2024-03-08T03:07:37;5.20;99.90
19680;DHT22;9989;48.962;9.182;2024-03-08T03:10:03;5.10;99.90
19680;DHT22;9989;48.962;9.182;2024-03-08T03:12:30;5.10;99.90
19680;DHT22;9989;48.962;9.182;2024-03-08T03:14:56;5.10;99.90
19680;DHT22;9989;48.962;9.182;2024-03-08T03:17:25;5.10;99.90
19680;DHT22;9989;48.962;9.182;2024-03-08T03:19:51;5.10;99.90
19680;DHT22;9989;48.962;9.182;2024-03-08T03:22:18;5.10;99.90
19680;DHT22;9989;48.962;9.182;2024-03-08T03:24:44;5.00;99.90
19680;DHT22;9989;48.962;9.182;2024-03-08T03:27:10;5.10;99.90
19680;DHT22;9989;48.962;9.182;2024-03-08T03:29:39;5.00;99.90
19680;DHT22;9989;48.962;9.182;2024-03-08T03:32:08;5.00;99.90
19680;DHT22;9989;48.962;9.182;2024-03-08T03:34:34;5.00;99.90
19680;DHT22;9989;48.962;9.182;2024-03-08T03:37:03;5.00;99.90
19680;DHT22;9989;48.962;9.182;2024-03-08T03:39:30;5.00;99.90
19680;DHT22;9989;48.962;9.182;2024-03-08T03:42:00;5.00;99.90
19680;DHT22;9989;48.962;9.182;2024-03-08T03:44:27;4.90;99.90
19680;DHT22;9989;48.962;9.182;2024-03-08T03:46:53;4.90;99.90
19680;DHT22;9989;48.962;9.182;2024-03-08T03:49:19;4.90;99.90
19680;DHT22;9989;48.962;9.182;2024-03-08T03:51:45;4.90;99.90
19680;DHT22;9989;48.962;9.182;2024-03-08T03:54:11;4.90;99.90
19680;DHT22;9989;48.962;9.182;2024-03-08T03:56:36;4.80;99.90
19680;DHT22;9989;48.962;9.182;2024-03-08T03:59:02;4.80;99.90
19680;DHT22;9989;48.962;9.182;2024-03-08T04:01:27;4.80;99.90
19680;DHT22;9989;48.962;9.182;2024-03-08T04:03:54;4.80;99.90
19680;DHT22;9989;48.962;9.182;2024-03-08T04:06:20;4.80;99.90
19680;DHT22;9989;48.962;9.182;2024-03-08T04:08:46;4.80;99.90
19680;DHT22;9989;48.962;9.182;2024-03-08T04:11:11;4.80;99.90
19680;DHT22;9989;48.962;9.182;2024-03-08T04:13:37;4.80;99.90
19680;DHT22;9989;48.962;9.182;2024-03-08T04:16:03;4.80;99.90
19680;DHT22;9989;48.962;9.182;2024-03-08T04:18:33;4.80;99.90
19680;DHT22;9989;48.962;9.182;2024-03-08T04:21:01;4.80;99.90
19680;DHT22;9989;48.962;9.182;2024-03-08T04:23:27;4.80;99.90
19680;DHT22;9989;48.962;9.182;2024-03-08T04:25:54;4.80;99.90
19680;DHT22;9989;48.962;9.182;2024-03-08T04:28:19;4.80;99.90
19680;DHT22;9989;48.962;9.182;2024-03-08T04:30:45;4.70;99.90
19680;DHT22;9989;48.962;9.182;2024-03-08T04:33:11;4.70;99.90
19680;DHT22;9989;48.962;9.182;2024-03-08T04:35:37;4.70;99.90
19680;DHT22;9989;48.962;9.182;2024-03-08T04:38:02;4.70;99.90
19680;DHT22;9989;48.962;9.182;2024-03-08T04:40:30;4.70;99.90
19680;DHT22;9989;48.962;9.182;2024-03-08T04:42:58;4.70;99.90
19680;DHT22;9989;48.962;9.182;2024-03-08T04:45:24;4.70;99.90
19680;DHT22;9989;48.962;9.182;2024-03-08T04:47:51;4.70;99.90
19680;DHT22;9989;48.962;9.182;2024-03-08T04:50:18;4.70;99.90
19680;DHT22;9989;48.962;9.182;2024-03-08T04:52:43;4.70;99.90
19680;DHT22;9989;48.962;9.182;2024-03-08T04:55:09;4.60;99.90
19680;DHT22;9989;48.962;9.182;2024-03-08T04:57:35;4.60;99.90
19680;DHT22;9989;48.962;9.182;2024-03-08T05:00:04;4.60;99.90
19680;DHT22;9989;48.962;9.182;2024-03-08T05:02:37;4.60;99.90
19680;DHT22;9989;48.962;9.182;2024-03-08T05:05:05;4.60;99.90
19680;DHT22;9989;48.962;9.182;2024-03-08T05:07:31;4.50;99.90
19680;DHT22;9989;48.962;9.182;2024-03-08T05:09:58;4.50;99.90
19680;DHT22;9989;48.962;9.182;2024-03-08T05:12:24;4.60;99.90
19680;DHT22;9989;48.962;9.182;2024-03-08T05:14:49;4.50;99.90
19680;DHT22;9989;48.962;9.182;2024-03-08T05:17:15;4.50;99.90
19680;DHT22;9989;48.962;9.182;2024-03-08T05:19:42;4.50;99.90
19680;DHT22;9989;48.962;9.182;2024-03-08T05:22:07;4.50;99.90
19680;DHT22;9989;48.962;9.182;2024-03-08T05:24:33;4.50;99.90
19680;DHT22;9989;48.962;9.182;2024-03-08T05:26:59;4.50;99.90
19680;DHT22;9989;48.962;9.182;2024-03-08T05:29:26;4.50;99.90
19680;DHT22;9989;48.962;9.182;2024-03-08T05:31:52;4.40;99.90
19680;DHT22;9989;48.962;9.182;2024-03-08T05:34:18;4.40;99.90
19680;DHT22;9989;48.962;9.182;2024-03-08T05:36:45;4.40;99.90
19680;DHT22;9989;48.962;9.182;2024-03-08T05:39:12;4.40;99.90
19680;DHT22;9989;48.962;9.182;2024-03-08T05:41:41;4.40;99.90
19680;DHT22;9989;48.962;9.182;2024-03-08T05:44:08;4.40;99.90
19680;DHT22;9989;48.962;9.182;2024-03-08T05:46:34;4.40;99.90
19680;DHT22;9989;48.962;9.182;2024-03-08T05:49:01;4.40;99.90
19680;DHT22;9989;48.962;9.182;2024-03-08T05:51:34;4.40;99.90
19680;DHT22;9989;48.962;9.182;2024-03-08T05:54:04;4.40;99.90
19680;DHT22;9989;48.962;9.182;2024-03-08T05:56:34;4.40;99.90
19680;DHT22;9989;48.962;9.182;2024-03-08T05:58:59;4.40;99.90
19680;DHT22;9989;48.962;9.182;2024-03-08T06:01:25;4.30;99.90
19680;DHT22;9989;48.962;9.182;2024-03-08T06:03:52;4.30;99.90
19680;DHT22;9989;48.962;9.182;2024-03-08T06:06:21;4.30;99.90
19680;DHT22;9989;48.962;9.182;2024-03-08T06:08:47;4.30;99.90
19680;DHT22;9989;48.962;9.182;2024-03-08T06:11:14;4.40;99.90
19680;DHT22;9989;48.962;9.182;2024-03-08T06:13:40;4.40;99.90
19680;DHT22;9989;48.962;9.182;2024-03-08T06:16:06;4.40;99.90
19680;DHT22;9989;48.962;9.182;2024-03-08T06:18:34;4.50;99.90
19680;DHT22;9989;48.962;9.182;2024-03-08T06:21:05;4.60;99.90
19680;DHT22;9989;48.962;9.182;2024-03-08T06:23:34;4.70;99.90
19680;DHT22;9989;48.962;9.182;2024-03-08T06:26:07;4.70;99.90
19680;DHT22;9989;48.962;9.182;2024-03-08T06:28:32;4.80;99.90
19680;DHT22;9989;48.962;9.182;2024-03-08T06:30:59;4.90;99.90
19680;DHT22;9989;48.962;9.182;2024-03-08T06:33:24;4.90;99.90
19680;DHT22;9989;48.962;9.182;2024-03-08T06:35:54;4.90;99.90
19680;DHT22;9989;48.962;9.182;2024-03-08T06:38:26;5.00;99.90
19680;DHT22;9989;48.962;9.182;2024-03-08T06:40:52;5.00;99.90
19680;DHT22;9989;48.962;9.182;2024-03-08T06:43:18;5.10;99.90
19680;DHT22;9989;48.962;9.182;2024-03-08T06:45:45;5.10;99.90
19680;DHT22;9989;48.962;9.182;2024-03-08T06:48:18;5.20;99.90
19680;DHT22;9989;48.962;9.182;2024-03-08T06:50:44;5.30;99.90
19680;DHT22;9989;48.962;9.182;2024-03-08T06:53:11;5.30;99.90
19680;DHT22;9989;48.962;9.182;2024-03-08T06:55:36;5.40;99.90
19680;DHT22;9989;48.962;9.182;2024-03-08T06:58:02;5.50;99.90
19680;DHT22;9989;48.962;9.182;2024-03-08T07:00:28;5.50;99.90
19680;DHT22;9989;48.962;9.182;2024-03-08T07:02:56;5.60;99.90
19680;DHT22;9989;48.962;9.182;2024-03-08T07:05:22;5.60;99.90
19680;DHT22;9989;48.962;9.182;2024-03-08T07:07:49;5.70;99.90
19680;DHT22;9989;48.962;9.182;2024-03-08T07:10:16;5.70;99.90
19680;DHT22;9989;48.962;9.182;2024-03-08T07:12:42;5.80;99.90
19680;DHT22;9989;48.962;9.182;2024-03-08T07:15:08;5.80;99.90
19680;DHT22;9989;48.962;9.182;2024-03-08T07:17:36;5.90;99.90
19680;DHT22;9989;48.962;9.182;2024-03-08T07:20:01;6.00;99.90
19680;DHT22;9989;48.962;9.182;2024-03-08T07:22:33;6.00;99.90
19680;DHT22;9989;48.962;9.182;2024-03-08T07:24:58;6.10;99.90
19680;DHT22;9989;48.962;9.182;2024-03-08T07:27:33;6.10;99.90
19680;DHT22;9989;48.962;9.182;2024-03-08T07:30:04;6.20;99.90
19680;DHT22;9989;48.962;9.182;2024-03-08T07:32:30;6.20;99.90
19680;DHT22;9989;48.962;9.182;2024-03-08T07:34:57;6.30;99.90
19680;DHT22;9989;48.962;9.182;2024-03-08T07:37:22;6.40;99.90
19680;DHT22;9989;48.962;9.182;2024-03-08T07:39:48;6.40;99.90
19680;DHT22;9989;48.962;9.182;2024-03-08T07:42:14;6.50;99.90
19680;DHT22;9989;48.962;9.182;2024-03-08T07:44:40;6.60;99.90
19680;DHT22;9989;48.962;9.182;2024-03-08T07:47:05;6.60;99.90
19680;DHT22;9989;48.962;9.182;2024-03-08T07:49:37;6.70;99.90
19680;DHT22;9989;48.962;9.182;2024-03-08T07:52:04;6.60;99.90
19680;DHT22;9989;48.962;9.182;2024-03-08T07:54:33;6.70;99.90
19680;DHT22;9989;48.962;9.182;2024-03-08T07:56:59;6.80;99.90
19680;DHT22;9989;48.962;9.182;2024-03-08T07:59:25;6.80;99.90
19680;DHT22;9989;48.962;9.182;2024-03-08T08:01:51;6.90;99.90
19680;DHT22;9989;48.962;9.182;2024-03-08T08:04:16;6.90;99.90
19680;DHT22;9989;48.962;9.182;2024-03-08T08:06:43;7.00;99.90
19680;DHT22;9989;48.962;9.182;2024-03-08T08:09:09;7.10;99.90
19680;DHT22;9989;48.962;9.182;2024-03-08T08:11:41;7.10;99.90
19680;DHT22;9989;48.962;9.182;2024-03-08T08:14:11;7.10;99.90
19680;DHT22;9989;48.962;9.182;2024-03-08T08:16:37;7.10;99.90
19680;DHT22;9989;48.962;9.182;2024-03-08T08:19:03;7.20;99.90
19680;DHT22;9989;48.962;9.182;2024-03-08T08:21:34;7.10;99.90
19680;DHT22;9989;48.962;9.182;2024-03-08T08:24:00;7.20;99.90
19680;DHT22;9989;48.962;9.182;2024-03-08T08:26:25;7.20;99.90
19680;DHT22;9989;48.962;9.182;2024-03-08T08:28:51;7.10;99.90
19680;DHT22;9989;48.962;9.182;2024-03-08T08:31:18;7.10;99.90
19680;DHT22;9989;48.962;9.182;2024-03-08T08:33:44;7.10;99.90
19680;DHT22;9989;48.962;9.182;2024-03-08T08:36:10;7.10;99.90
19680;DHT22;9989;48.962;9.182;2024-03-08T08:38:35;7.10;99.90
19680;DHT22;9989;48.962;9.182;2024-03-08T08:41:01;7.10;99.90
19680;DHT22;9989;48.962;9.182;2024-03-08T08:43:27;7.10;99.90
19680;DHT22;9989;48.962;9.182;2024-03-08T08:45:53;7.00;99.90
19680;DHT22;9989;48.962;9.182;2024-03-08T08:48:20;7.10;99.90
19680;DHT22;9989;48.962;9.182;2024-03-08T08:50:46;7.10;99.90
19680;DHT22;9989;48.962;9.182;2024-03-08T08:53:12;7.20;99.90
19680;DHT22;9989;48.962;9.182;2024-03-08T08:55:40;7.10;99.90
19680;DHT22;9989;48.962;9.182;2024-03-08T08:58:06;7.10;99.90
19680;DHT22;9989;48.962;9.182;2024-03-08T09:00:33;7.00;99.90
19680;DHT22;9989;48.962;9.182;2024-03-08T09:03:00;6.90;99.90
19680;DHT22;9989;48.962;9.182;2024-03-08T09:05:25;7.00;99.90
19680;DHT22;9989;48.962;9.182;2024-03-08T09:07:51;6.90;99.90
19680;DHT22;9989;48.962;9.182;2024-03-08T09:10:18;7.00;99.90
19680;DHT22;9989;48.962;9.182;2024-03-08T09:12:44;7.00;99.90
19680;DHT22;9989;48.962;9.182;2024-03-08T09:15:10;7.20;99.90
19680;DHT22;9989;48.962;9.182;2024-03-08T09:17:37;7.20;99.90
19680;DHT22;9989;48.962;9.182;2024-03-08T09:20:06;7.20;99.90
19680;DHT22;9989;48.962;9.182;2024-03-08T09:22:32;7.20;99.90
19680;DHT22;9989;48.962;9.182;2024-03-08T09:24:57;7.10;99.90
19680;DHT22;9989;48.962;9.182;2024-03-08T09:27:23;7.10;99.90
19680;DHT22;9989;48.962;9.182;2024-03-08T09:29:49;7.10;99.90
19680;DHT22;9989;48.962;9.182;2024-03-08T09:32:15;7.00;99.90
19680;DHT22;9989;48.962;9.182;2024-03-08T09:34:40;7.00;99.90
19680;DHT22;9989;48.962;9.182;2024-03-08T09:37:06;7.00;99.90
19680;DHT22;9989;48.962;9.182;2024-03-08T09:39:32;7.00;99.90
19680;DHT22;9989;48.962;9.182;2024-03-08T09:41:58;7.00;99.90
19680;DHT22;9989;48.962;9.182;2024-03-08T09:44:24;7.00;99.90
19680;DHT22;9989;48.962;9.182;2024-03-08T09:46:50;7.00;99.90
19680;DHT22;9989;48.962;9.182;2024-03-08T09:49:19;7.00;99.90
19680;DHT22;9989;48.962;9.182;2024-03-08T09:51:46;7.00;99.90
19680;DHT22;9989;48.962;9.182;2024-03-08T09:54:12;7.00;99.90
19680;DHT22;9989;48.962;9.182;2024-03-08T09:56:39;6.90;99.90
19680;DHT22;9989;48.962;9.182;2024-03-08T09:59:09;7.00;99.90
19680;DHT22;9989;48.962;9.182;2024-03-08T10:01:53;7.00;99.90
19680;DHT22;9989;48.962;9.182;2024-03-08T10:04:22;7.10;99.90
19680;DHT22;9989;48.962;9.182;2024-03-08T10:06:47;7.10;99.90
19680;DHT22;9989;48.962;9.182;2024-03-08T10:09:14;7.20;99.90
19680;DHT22;9989;48.962;9.182;2024-03-08T10:11:42;7.20;99.90
19680;DHT22;9989;48.962;9.182;2024-03-08T10:14:11;7.20;99.90
19680;DHT22;9989;48.962;9.182;2024-03-08T10:16:40;7.30;99.90
19680;DHT22;9989;48.962;9.182;2024-03-08T10:19:06;7.40;99.90
19680;DHT22;9989;48.962;9.182;2024-03-08T10:21:32;7.60;99.90
19680;DHT22;9989;48.962;9.182;2024-03-08T10:23:58;7.70;99.90
19680;DHT22;9989;48.962;9.182;2024-03-08T10:26:25;7.80;99.90
19680;DHT22;9989;48.962;9.182;2024-03-08T10:28:52;7.80;99.90
19680;DHT22;9989;48.962;9.182;2024-03-08T10:31:19;7.80;99.90
19680;DHT22;9989;48.962;9.182;2024-03-08T10:33:45;7.80;99.90
19680;DHT22;9989;48.962;9.182;2024-03-08T10:36:13;7.80;99.90
19680;DHT22;9989;48.962;9.182;2024-03-08T10:38:40;7.80;99.90
19680;DHT22;9989;48.962;9.182;2024-03-08T10:41:07;7.80;99.90
19680;DHT22;9989;48.962;9.182;2024-03-08T10:47:01;7.80;99.90
19680;DHT22;9989;48.962;9.182;2024-03-08T10:49:54;7.80;99.90
19680;DHT22;9989;48.962;9.182;2024-03-08T10:52:21;7.90;99.90
19680;DHT22;9989;48.962;9.182;2024-03-08T10:54:48;7.90;99.90
19680;DHT22;9989;48.962;9.182;2024-03-08T10:57:18;8.00;99.90
19680;DHT22;9989;48.962;9.182;2024-03-08T10:59:45;8.20;99.90
19680;DHT22;9989;48.962;9.182;2024-03-08T11:02:12;8.30;99.90
19680;DHT22;9989;48.962;9.182;2024-03-08T11:04:38;8.40;99.90
19680;DHT22;9989;48.962;9.182;2024-03-08T11:07:04;8.60;99.90
19680;DHT22;9989;48.962;9.182;2024-03-08T11:09:36;8.80;99.90
19680;DHT22;9989;48.962;9.182;2024-03-08T11:14:55;9.70;99.90
19680;DHT22;9989;48.962;9.182;2024-03-08T11:19:55;11.20;99.90
19680;DHT22;9989;48.962;9.182;2024-03-08T11:22:25;12.60;99.90
19680;DHT22;9989;48.962;9.182;2024-03-08T11:24:53;14.00;99.90
19680;DHT22;9989;48.962;9.182;2024-03-08T11:27:18;14.70;96.70
19680;DHT22;9989;48.962;9.182;2024-03-08T11:29:59;14.80;94.50
19680;DHT22;9989;48.962;9.182;2024-03-08T11:32:30;15.00;92.80
19680;DHT22;9989;48.962;9.182;2024-03-08T11:34:59;15.40;92.60
19680;DHT22;9989;48.962;9.182;2024-03-08T11:37:28;16.40;89.50
19680;DHT22;9989;48.962;9.182;2024-03-08T11:39:55;17.80;85.40
19680;DHT22;9989;48.962;9.182;2024-03-08T11:42:30;19.30;78.90
19680;DHT22;9989;48.962;9.182;2024-03-08T11:44:56;21.20;70.70
19680;DHT22;9989;48.962;9.182;2024-03-08T11:47:22;23.30;63.10
19680;DHT22;9989;48.962;9.182;2024-03-08T11:49:48;25.30;56.50
19680;DHT22;9989;48.962;9.182;2024-03-08T11:52:17;26.70;50.90
19680;DHT22;9989;48.962;9.182;2024-03-08T11:54:51;27.70;48.00
19680;DHT22;9989;48.962;9.182;2024-03-08T11:57:20;27.40;45.50
19680;DHT22;9989;48.962;9.182;2024-03-08T11:59:51;26.90;45.80
19680;DHT22;9989;48.962;9.182;2024-03-08T12:02:16;27.20;45.90
19680;DHT22;9989;48.962;9.182;2024-03-08T12:04:44;27.90;44.60
19680;DHT22;9989;48.962;9.182;2024-03-08T12:07:11;28.70;43.40
19680;DHT22;9989;48.962;9.182;2024-03-08T12:09:40;29.60;42.40
19680;DHT22;9989;48.962;9.182;2024-03-08T12:12:07;30.40;40.20
19680;DHT22;9989;48.962;9.182;2024-03-08T12:14:35;30.60;39.50
19680;DHT22;9989;48.962;9.182;2024-03-08T12:17:02;30.60;38.80
19680;DHT22;9989;48.962;9.182;2024-03-08T12:19:28;30.60;38.10
19680;DHT22;9989;48.962;9.182;2024-03-08T12:22:07;30.00;38.60
19680;DHT22;9989;48.962;9.182;2024-03-08T12:24:34;29.30;39.60
19680;DHT22;9989;48.962;9.182;2024-03-08T12:26:59;29.40;39.00
19680;DHT22;9989;48.962;9.182;2024-03-08T12:29:25;29.50;38.80
19680;DHT22;9989;48.962;9.182;2024-03-08T12:31:56;29.70;39.20
19680;DHT22;9989;48.962;9.182;2024-03-08T12:34:24;30.10;39.10
19680;DHT22;9989;48.962;9.182;2024-03-08T12:36:51;30.40;38.10
19680;DHT22;9989;48.962;9.182;2024-03-08T12:39:21;30.80;37.90
19680;DHT22;9989;48.962;9.182;2024-03-08T12:41:53;31.30;37.70
19680;DHT22;9989;48.962;9.182;2024-03-08T12:44:20;31.90;37.20
19680;DHT22;9989;48.962;9.182;2024-03-08T12:46:47;32.40;36.90
19680;DHT22;9989;48.962;9.182;2024-03-08T12:49:13;32.70;35.80
19680;DHT22;9989;48.962;9.182;2024-03-08T12:51:43;32.70;35.00
19680;DHT22;9989;48.962;9.182;2024-03-08T12:54:09;32.10;35.10
19680;DHT22;9989;48.962;9.182;2024-03-08T12:56:35;31.30;35.50
19680;DHT22;9989;48.962;9.182;2024-03-08T12:59:03;30.70;36.80
19680;DHT22;9989;48.962;9.182;2024-03-08T13:01:31;30.40;37.00
19680;DHT22;9989;48.962;9.182;2024-03-08T13:04:00;29.90;37.40
19680;DHT22;9989;48.962;9.182;2024-03-08T13:06:28;29.20;38.30
19680;DHT22;9989;48.962;9.182;2024-03-08T13:08:56;28.50;39.00
19680;DHT22;9989;48.962;9.182;2024-03-08T13:11:23;28.20;39.50
19680;DHT22;9989;48.962;9.182;2024-03-08T13:13:50;27.90;40.00
19680;DHT22;9989;48.962;9.182;2024-03-08T13:16:15;27.80;40.50
19680;DHT22;9989;48.962;9.182;2024-03-08T13:18:43;27.90;40.20
19680;DHT22;9989;48.962;9.182;2024-03-08T13:21:12;28.20;40.00
19680;DHT22;9989;48.962;9.182;2024-03-08T13:23:41;28.40;39.40
19680;DHT22;9989;48.962;9.182;2024-03-08T13:26:11;28.30;39.60
19680;DHT22;9989;48.962;9.182;2024-03-08T13:28:47;28.40;39.40
19680;DHT22;9989;48.962;9.182;2024-03-08T13:31:22;28.50;39.20
19680;DHT22;9989;48.962;9.182;2024-03-08T13:33:48;28.50;39.40
19680;DHT22;9989;48.962;9.182;2024-03-08T13:36:14;28.40;39.40
19680;DHT22;9989;48.962;9.182;2024-03-08T13:38:43;28.20;40.10
19680;DHT22;9989;48.962;9.182;2024-03-08T13:41:10;27.70;39.90
19680;DHT22;9989;48.962;9.182;2024-03-08T13:43:37;27.30;40.40
19680;DHT22;9989;48.962;9.182;2024-03-08T13:46:03;26.80;40.80
19680;DHT22;9989;48.962;9.182;2024-03-08T13:48:29;26.60;41.20
19680;DHT22;9989;48.962;9.182;2024-03-08T13:50:56;26.60;41.60
19680;DHT22;9989;48.962;9.182;2024-03-08T13:53:23;27.00;41.10
19680;DHT22;9989;48.962;9.182;2024-03-08T13:55:49;26.90;41.10
19680;DHT22;9989;48.962;9.182;2024-03-08T13:58:15;27.30;40.80
19680;DHT22;9989;48.962;9.182;2024-03-08T14:00:41;27.90;40.00
19680;DHT22;9989;48.962;9.182;2024-03-08T14:03:09;28.00;40.60
19680;DHT22;9989;48.962;9.182;2024-03-08T14:05:39;27.80;39.90
19680;DHT22;9989;48.962;9.182;2024-03-08T14:08:08;27.40;40.10
19680;DHT22;9989;48.962;9.182;2024-03-08T14:10:35;27.10;40.70
19680;DHT22;9989;48.962;9.182;2024-03-08T14:13:02;27.20;41.20
19680;DHT22;9989;48.962;9.182;2024-03-08T14:15:33;27.30;40.60
19680;DHT22;9989;48.962;9.182;2024-03-08T14:18:00;27.10;41.10
19680;DHT22;9989;48.962;9.182;2024-03-08T14:20:26;26.90;41.30
19680;DHT22;9989;48.962;9.182;2024-03-08T14:22:53;26.70;41.80
19680;DHT22;9989;48.962;9.182;2024-03-08T14:25:20;26.70;41.40
19680;DHT22;9989;48.962;9.182;2024-03-08T14:27:52;26.40;41.80
19680;DHT22;9989;48.962;9.182;2024-03-08T14:30:23;26.10;42.60
19680;DHT22;9989;48.962;9.182;2024-03-08T14:33:04;26.60;42.20
19680;DHT22;9989;48.962;9.182;2024-03-08T14:35:31;27.30;40.70
19680;DHT22;9989;48.962;9.182;2024-03-08T14:37:57;27.60;40.20
19680;DHT22;9989;48.962;9.182;2024-03-08T14:40:24;27.70;40.20
19680;DHT22;9989;48.962;9.182;2024-03-08T14:42:51;28.00;40.10
19680;DHT22;9989;48.962;9.182;2024-03-08T14:45:17;28.30;39.60
19680;DHT22;9989;48.962;9.182;2024-03-08T14:47:47;28.70;39.50
19680;DHT22;9989;48.962;9.182;2024-03-08T14:50:16;28.90;38.80
19680;DHT22;9989;48.962;9.182;2024-03-08T14:52:43;28.80;38.60
19680;DHT22;9989;48.962;9.182;2024-03-08T14:55:08;28.30;39.10
19680;DHT22;9989;48.962;9.182;2024-03-08T14:57:36;27.70;39.80
19680;DHT22;9989;48.962;9.182;2024-03-08T15:00:02;27.30;39.90
19680;DHT22;9989;48.962;9.182;2024-03-08T15:02:31;27.00;40.90
19680;DHT22;9989;48.962;9.182;2024-03-08T15:05:03;26.90;40.80
19680;DHT22;9989;48.962;9.182;2024-03-08T15:07:34;26.80;41.40
19680;DHT22;9989;48.962;9.182;2024-03-08T15:10:00;26.90;41.10
19680;DHT22;9989;48.962;9.182;2024-03-08T15:12:25;26.60;40.80
19680;DHT22;9989;48.962;9.182;2024-03-08T15:14:52;26.30;41.40
19680;DHT22;9989;48.962;9.182;2024-03-08T15:17:18;26.00;41.60
19680;DHT22;9989;48.962;9.182;2024-03-08T15:19:49;25.70;42.00
19680;DHT22;9989;48.962;9.182;2024-03-08T15:22:15;25.40;42.40
19680;DHT22;9989;48.962;9.182;2024-03-08T15:24:46;25.10;43.10
19680;DHT22;9989;48.962;9.182;2024-03-08T15:27:11;24.90;43.50
19680;DHT22;9989;48.962;9.182;2024-03-08T15:29:37;24.60;44.20
19680;DHT22;9989;48.962;9.182;2024-03-08T15:32:03;24.30;44.80
19680;DHT22;9989;48.962;9.182;2024-03-08T15:34:29;24.00;45.00
19680;DHT22;9989;48.962;9.182;2024-03-08T15:36:57;23.70;45.30
19680;DHT22;9989;48.962;9.182;2024-03-08T15:39:27;23.50;45.90
19680;DHT22;9989;48.962;9.182;2024-03-08T15:41:53;23.30;46.10
19680;DHT22;9989;48.962;9.182;2024-03-08T15:44:20;23.10;46.50
19680;DHT22;9989;48.962;9.182;2024-03-08T15:46:46;22.70;47.10
19680;DHT22;9989;48.962;9.182;2024-03-08T15:49:12;22.30;47.50
19680;DHT22;9989;48.962;9.182;2024-03-08T15:51:38;21.90;48.40
19680;DHT22;9989;48.962;9.182;2024-03-08T15:54:04;21.40;49.20
19680;DHT22;9989;48.962;9.182;2024-03-08T15:56:30;21.10;50.10
19680;DHT22;9989;48.962;9.182;2024-03-08T15:59:00;20.90;50.50
19680;DHT22;9989;48.962;9.182;2024-03-08T16:01:29;20.70;50.90
19680;DHT22;9989;48.962;9.182;2024-03-08T16:03:56;20.60;51.40
19680;DHT22;9989;48.962;9.182;2024-03-08T16:06:23;20.40;52.00